Flight Track Log - Related Links

Times and Time Zones

All times are in EDT time to prevent confusion due to time zone crossing. See the PDT4147 flight status page for this flight to view local times or setup timezone preferences in your user account.

Time Position Orientation Groundspeed Altitude Reporting Facility
EDT Latitude Longitude Course Direction KTS MPH feet Rate Location/Type
Mon 05:50:00 PM 37.1281 -80.0000 180° South  Level FlightAware
Mon 05:51:00 PM 37.0663 -80.0202 198° South  Level FlightAware
Mon 05:52:00 PM 37.0036 -80.0333 180° South  Level FlightAware
Mon 05:53:00 PM 36.9394 -80.0293 177° South  Level FlightAware
Mon 05:54:00 PM 36.8800 -80.0253 177° South  Level FlightAware
Mon 05:55:00 PM 36.8206 -80.0214 177° South  Level FlightAware
Mon 05:56:00 PM 36.7612 -80.0174 177° South  Level FlightAware
Mon 05:57:00 PM 36.7018 -80.0157 177° South  Level FlightAware
Mon 05:58:00 PM 36.6424 -80.0120 177° South  Level FlightAware
Mon 05:59:00 PM 36.5830 -80.0083 177° South  Level FlightAware
Mon 06:00:00 PM 36.5236 -80.0046 177° South  Level FlightAware
Mon 06:01:00 PM 36.4642 -80.0009 177° South  Level FlightAware
Mon 06:02:00 PM 36.4050 -79.9944 174° South  Level FlightAware
Mon 06:03:00 PM 36.3458 -79.9870 174° South  Level FlightAware
Mon 06:04:00 PM 36.2865 -79.9816 177° South  Level FlightAware
Mon 06:05:00 PM 36.2271 -79.9781 177° South  Level FlightAware
Mon 06:06:00 PM 36.1677 -79.9745 177° South  Level FlightAware
Mon 06:07:00 PM 36.1083 -79.9711 177° South  Level FlightAware
Mon 06:08:00 PM 36.0489 -79.9676 177° South  Level FlightAware
Mon 06:09:00 PM 36.0049 -80.0081 230° Southwest  Level FlightAware
Mon 06:10:00 PM 35.9665 -80.0642 230° Southwest  Level FlightAware
Mon 06:11:00 PM 35.9280 -80.1202 230° Southwest  Level FlightAware
Mon 06:12:00 PM 35.8895 -80.1761 230° Southwest  Level FlightAware
Mon 06:12:33 PM 35.9975 -80.3789 228° Southwest 240 276 8,100  Level Atlanta Center
Mon 06:13:00 PM 35.8509 -80.2320 230° Southwest  Level FlightAware
Mon 06:13:59 PM 35.9111 -80.4211 202° Southwest 233 268 6,500  Level Atlanta Center
Mon 06:14:00 PM 35.8092 -80.2843 225° Southwest  Level FlightAware
Mon 06:15:00 PM 35.7680 -80.3371 227° Southwest  Level FlightAware
Mon 06:16:00 PM 35.7277 -80.3910 227° Southwest  Level FlightAware
Mon 06:16:00 PM 35.8091 -80.4990 212° Southwest  Level Estimated
Mon 06:17:00 PM 35.6873 -80.4447 227° Southwest  Level FlightAware
Mon 06:17:01 PM 35.7425 -80.5056 212° Southwest 216 249 6,000  Level Atlanta Center
Mon 06:18:00 PM 35.6452 -80.4962 228° Southwest  Level FlightAware
Mon 06:18:08 PM 35.6736 -80.5033 178° South 216 249 6,000  Level Atlanta Center
Mon 06:19:15 PM 35.6089 -80.4983 176° South 217 250 6,000  Level Atlanta Center
Mon 06:21:00 PM 35.5546 -80.6075 239° Southwest  Level FlightAware
Mon 06:22:24 PM 35.4572 -80.6019 239° Southwest 201 231 6,000  Level Atlanta Center
Mon 06:23:13 PM 35.4253 -80.6542 233° Southwest 221 254 6,000 -310 Level Atlanta Center
Mon 06:24:20 PM 35.3811 -80.7144 228° Southwest 230 265 5,400 -797 Descending Atlanta Center
Mon 06:25:21 PM 35.3469 -80.7617 228° Southwest 192 221 4,300 -1,034 Descending Atlanta Center
Mon 06:26:16 PM 35.3167 -80.8036 229° Southwest 166 191 3,400 -885 Descending Atlanta Center
Mon 06:27:23 PM 35.2825 -80.8533 230° Southwest 166 191 2,500 -791 Descending Atlanta Center
Mon 06:28:25 PM 35.2542 -80.8875 225° Southwest 144 166 1,700 -774 Descending Atlanta Center

Login

Don't have an account? Register now (free) for customized features, flight alerts, and more!